createdAt,value
2023-03-05T00:04:29.889Z,102209.69
2023-03-05T00:09:51.920Z,102216.75
2023-03-05T00:15:13.709Z,102208.91
2023-03-05T00:20:36.334Z,102207.38
2023-03-05T00:26:01.965Z,102198.91
2023-03-05T00:31:26.022Z,102193.38
2023-03-05T00:36:52.775Z,102192.31
2023-03-05T00:42:14.492Z,102187.63
2023-03-05T00:47:36.333Z,102179.53
2023-03-05T00:52:58.114Z,102172.50
2023-03-05T00:58:19.810Z,102163.75
2023-03-05T01:03:42.138Z,102154.19
2023-03-05T01:09:04.408Z,102148.84
2023-03-05T01:14:28.035Z,102150.97
2023-03-05T01:19:49.826Z,102154.81
2023-03-05T01:25:14.888Z,102138.59
2023-03-05T01:30:36.629Z,102133.50
2023-03-05T01:35:58.698Z,102125.59
2023-03-05T01:41:21.156Z,102116.69
2023-03-05T01:46:42.878Z,102100.47
2023-03-05T01:52:12.239Z,102096.00
2023-03-05T01:57:38.471Z,102098.13
2023-03-05T02:03:05.981Z,102080.84
2023-03-05T02:08:27.780Z,102077.44
2023-03-05T02:13:49.611Z,102070.44
2023-03-05T02:19:14.275Z,102074.28
2023-03-05T02:24:37.870Z,102058.94
2023-03-05T02:29:59.541Z,102048.28
2023-03-05T02:35:21.874Z,102051.28
2023-03-05T02:40:44.203Z,102051.47
2023-03-05T02:46:06.694Z,102046.41
2023-03-05T02:51:28.395Z,102037.44
2023-03-05T02:56:50.367Z,102030.19
2023-03-05T03:02:12.670Z,102027.84
2023-03-05T03:07:36.144Z,102018.91
2023-03-05T03:12:57.878Z,102011.66
2023-03-05T03:18:20.074Z,102007.19
2023-03-05T03:23:41.755Z,102003.81
2023-03-05T03:29:03.481Z,102004.00
2023-03-05T03:34:25.796Z,101995.94
2023-03-05T03:39:47.939Z,101989.75
2023-03-05T03:45:09.999Z,101982.50
2023-03-05T03:50:31.740Z,101977.19
2023-03-05T03:55:58.813Z,101970.16
2023-03-05T04:01:21.744Z,101960.16
2023-03-05T04:06:43.871Z,101959.53
2023-03-05T04:12:06.249Z,101942.25
2023-03-05T04:17:27.948Z,101941.41
2023-03-05T04:22:49.726Z,101937.78
2023-03-05T04:28:12.036Z,101925.00
2023-03-05T04:33:34.239Z,101920.75
2023-03-05T04:38:56.006Z,101926.50
2023-03-05T04:44:18.260Z,101919.25
2023-03-05T04:49:40.005Z,101911.19
2023-03-05T04:55:01.907Z,101907.78
2023-03-05T05:00:24.448Z,101913.31
2023-03-05T05:05:46.213Z,101908.00
2023-03-05T05:11:09.028Z,101907.38
2023-03-05T05:16:30.817Z,101904.59
2023-03-05T05:21:52.579Z,101896.69
2023-03-05T05:27:14.420Z,101895.00
2023-03-05T05:32:37.059Z,101888.63
2023-03-05T05:37:58.933Z,101880.53
2023-03-05T05:43:20.956Z,101881.81
2023-03-05T05:48:43.622Z,101871.78
2023-03-05T05:54:05.540Z,101867.31
2023-03-05T05:59:27.625Z,101860.94
2023-03-05T06:04:49.473Z,101862.25
2023-03-05T06:10:11.717Z,101861.38
2023-03-05T06:15:33.685Z,101861.81
2023-03-05T06:20:57.660Z,101867.34
2023-03-05T06:26:22.031Z,101858.44
2023-03-05T06:31:43.888Z,101855.66
2023-03-05T06:37:05.826Z,101859.50
2023-03-05T06:42:27.578Z,101849.06
2023-03-05T06:47:49.774Z,101849.81
2023-03-05T06:53:11.479Z,101842.84
2023-03-05T06:58:33.197Z,101841.47
2023-03-05T07:03:59.191Z,101846.50
2023-03-05T07:09:21.140Z,101840.78
2023-03-05T07:14:42.851Z,101844.91
2023-03-05T07:20:05.106Z,101847.13
2023-03-05T07:25:26.919Z,101836.72
2023-03-05T07:31:00.045Z,101838.50
2023-03-05T07:36:21.898Z,101837.00
2023-03-05T07:41:43.602Z,101832.72
2023-03-05T07:47:06.196Z,101835.63
2023-03-05T07:52:27.896Z,101832.75
2023-03-05T07:57:49.822Z,101825.47
2023-03-05T08:03:11.719Z,101816.22
2023-03-05T08:08:33.609Z,101818.69
2023-03-05T08:13:55.602Z,101812.56
2023-03-05T08:19:17.277Z,101821.22
2023-03-05T08:24:38.961Z,101815.03
2023-03-05T08:30:02.723Z,101805.31
2023-03-05T08:35:24.663Z,101804.56
2023-03-05T08:40:46.436Z,101799.75
2023-03-05T08:46:09.006Z,101792.00
2023-03-05T08:51:30.950Z,101790.28
2023-03-05T08:56:52.660Z,101783.63
2023-03-05T09:06:05.451Z,101774.03
2023-03-05T09:11:27.155Z,101768.91
2023-03-05T09:16:48.847Z,101766.38
2023-03-05T09:22:10.558Z,101759.00
2023-03-05T09:27:36.286Z,101753.22
2023-03-05T09:32:58.078Z,101743.78
2023-03-05T09:38:20.612Z,101743.81
2023-03-05T09:44:00.674Z,101744.31
2023-03-05T09:49:28.189Z,101724.84
2023-03-05T09:54:55.412Z,101727.66
2023-03-05T10:00:35.640Z,101727.16
2023-03-05T10:06:12.857Z,101726.69
2023-03-05T10:11:41.472Z,101719.50
2023-03-05T10:17:33.643Z,101716.00
2023-03-05T10:23:16.963Z,101715.16
2023-03-05T10:28:44.388Z,101708.25
2023-03-05T10:34:22.689Z,101695.91
2023-03-05T10:39:50.410Z,101695.78
2023-03-05T10:45:14.895Z,101688.56
2023-03-05T10:50:41.268Z,101685.63
2023-03-05T10:56:04.728Z,101694.69
2023-03-05T11:01:29.555Z,101720.41
2023-03-05T11:06:51.377Z,101715.19
2023-03-05T11:12:27.158Z,101695.63
2023-03-05T11:18:06.089Z,101684.31
2023-03-05T11:23:27.871Z,101684.22
2023-03-05T11:28:52.365Z,101665.47
2023-03-05T11:34:19.695Z,101662.09
2023-03-05T11:39:41.593Z,101654.22
2023-03-05T11:45:05.559Z,101646.16
2023-03-05T11:50:31.608Z,101627.78
2023-03-05T11:55:58.248Z,101611.13
2023-03-05T12:01:23.652Z,101595.56
2023-03-05T12:07:03.131Z,101579.97
2023-03-05T12:12:43.305Z,101591.56
2023-03-05T12:18:16.062Z,101580.81
2023-03-05T12:23:55.359Z,101566.91
2023-03-05T12:29:43.371Z,101550.25
2023-03-05T12:35:24.273Z,101546.88
2023-03-05T12:40:46.062Z,101525.75
2023-03-05T12:46:26.112Z,101517.44
2023-03-05T12:51:52.179Z,101506.78
2023-03-05T12:57:21.519Z,101494.50
2023-03-05T13:02:46.043Z,101492.22
2023-03-05T13:08:20.536Z,101486.19
2023-03-05T13:13:45.233Z,101469.38
2023-03-05T13:19:16.428Z,101457.44
2023-03-05T13:24:38.130Z,101447.41
2023-03-05T13:29:59.973Z,101447.53
2023-03-05T13:35:21.897Z,101443.81
2023-03-05T13:40:43.640Z,101435.88
2023-03-05T13:46:05.338Z,101427.59
2023-03-05T13:51:44.567Z,101420.75
2023-03-05T13:57:08.612Z,101407.16
2023-03-05T14:02:32.466Z,101396.56
2023-03-05T14:07:56.880Z,101398.28
2023-03-05T14:13:24.554Z,101388.66
2023-03-05T14:18:58.143Z,101390.59
2023-03-05T14:24:27.008Z,101382.66
2023-03-05T14:29:48.809Z,101370.28
2023-03-05T14:35:18.866Z,101366.41
2023-03-05T14:40:40.659Z,101356.28
2023-03-05T14:46:02.496Z,101343.81
2023-03-05T14:51:25.692Z,101348.72
2023-03-05T14:56:48.262Z,101344.63
2023-03-05T15:02:15.921Z,101337.19
2023-03-05T15:07:38.047Z,101330.81
2023-03-05T15:12:59.887Z,101313.09
2023-03-05T15:18:23.036Z,101312.25
2023-03-05T15:23:48.236Z,101308.22
2023-03-05T15:29:09.991Z,101304.47
2023-03-05T15:34:33.965Z,101294.88
2023-03-05T15:39:55.835Z,101276.38
2023-03-05T15:45:17.623Z,101274.03
2023-03-05T15:50:42.819Z,101271.38
2023-03-05T15:56:05.331Z,101266.78
2023-03-05T16:01:27.626Z,101261.88
2023-03-05T16:06:50.452Z,101257.84
2023-03-05T16:12:18.151Z,101255.84
2023-03-05T16:17:44.043Z,101269.13
2023-03-05T16:23:06.378Z,101254.19
2023-03-05T16:28:28.185Z,101251.25
2023-03-05T16:33:50.173Z,101250.25
2023-03-05T16:39:11.906Z,101234.59
2023-03-05T16:44:33.790Z,101231.13
2023-03-05T16:49:55.468Z,101224.03
2023-03-05T16:55:17.336Z,101212.50
2023-03-05T17:00:39.286Z,101203.16
2023-03-05T17:06:01.107Z,101199.69
2023-03-05T17:11:23.051Z,101214.00
2023-03-05T17:16:46.132Z,101202.69
2023-03-05T17:22:08.029Z,101204.50
2023-03-05T17:27:29.703Z,101205.44
2023-03-05T17:32:54.302Z,101209.91
2023-03-05T17:38:16.078Z,101206.13
2023-03-05T17:43:37.840Z,101203.25
2023-03-05T17:48:59.660Z,101202.16
2023-03-05T17:54:21.414Z,101204.84
2023-03-05T17:59:44.406Z,101199.16
2023-03-05T18:05:07.013Z,101188.97
2023-03-05T18:10:30.060Z,101196.31
2023-03-05T18:15:51.733Z,101190.63
2023-03-05T18:21:17.995Z,101189.56
2023-03-05T18:26:39.891Z,101183.84
2023-03-05T18:32:01.787Z,101179.00
2023-03-05T18:37:23.603Z,101178.78
2023-03-05T18:42:45.557Z,101175.94
2023-03-05T18:48:07.621Z,101172.84
2023-03-05T18:53:29.542Z,101163.91
2023-03-05T18:58:51.702Z,101151.13
2023-03-05T19:04:13.477Z,101154.81
2023-03-05T19:10:02.634Z,101150.50
2023-03-05T19:15:24.518Z,101139.34
2023-03-05T19:20:53.520Z,101122.00
2023-03-05T19:26:15.275Z,101125.81
2023-03-05T19:31:37.990Z,101112.19
2023-03-05T19:36:59.729Z,101112.06
2023-03-05T19:42:21.595Z,101093.97
2023-03-05T19:47:43.358Z,101100.06
2023-03-05T19:53:05.490Z,101095.84
2023-03-05T19:58:27.203Z,101090.44
2023-03-05T20:03:53.898Z,101080.59
2023-03-05T20:09:16.604Z,101077.66
2023-03-05T20:14:38.577Z,101077.25
2023-03-05T20:20:00.752Z,101070.38
2023-03-05T20:25:24.951Z,101059.19
2023-03-05T20:30:46.677Z,101057.94
2023-03-05T20:36:08.837Z,101047.69
2023-03-05T20:41:31.704Z,101053.91
2023-03-05T20:47:46.304Z,101043.56
2023-03-05T20:53:09.466Z,101042.06
2023-03-05T20:58:31.188Z,101034.34
2023-03-05T21:03:53.987Z,101034.38
2023-03-05T21:09:15.756Z,101021.56
2023-03-05T21:14:38.374Z,101019.34
2023-03-05T21:20:01.180Z,101008.13
2023-03-05T21:25:30.244Z,101000.84
2023-03-05T21:30:55.093Z,100996.91
2023-03-05T21:36:18.938Z,101003.00
2023-03-05T21:41:41.372Z,100997.06
2023-03-05T21:47:03.226Z,100991.13
2023-03-05T21:52:25.131Z,100985.47
2023-03-05T21:57:47.042Z,100980.06
2023-03-05T22:03:08.804Z,100972.97
2023-03-05T22:08:30.604Z,100977.84
2023-03-05T22:13:52.264Z,100968.03
2023-03-05T22:19:13.962Z,100950.97
2023-03-05T22:24:35.736Z,100955.28
2023-03-05T22:29:57.454Z,100941.25
2023-03-05T22:35:19.433Z,100932.78
2023-03-05T22:40:44.494Z,100930.78
2023-03-05T22:46:26.574Z,100924.03
2023-03-05T22:51:48.377Z,100921.13
2023-03-05T22:57:10.145Z,100902.66
2023-03-05T23:02:32.034Z,100903.13
2023-03-05T23:07:53.721Z,100895.22
2023-03-05T23:13:15.395Z,100900.13
2023-03-05T23:18:37.285Z,100892.88
2023-03-05T23:23:58.966Z,100893.31
2023-03-05T23:30:17.611Z,100891.56
2023-03-05T23:35:41.454Z,100883.94
2023-03-05T23:41:07.364Z,100879.75
2023-03-05T23:46:29.075Z,100877.19
2023-03-05T23:51:50.839Z,100871.31
2023-03-05T23:57:12.671Z,100863.75
